sensor_id;sensor_type;location;lat;lon;timestamp;P1;durP1;ratioP1;P2;durP2;ratioP2
3401;SDS011;1714;49.756;8.610;2023-09-18T00:06:32;12.05;;;3.45;;
3401;SDS011;1714;49.756;8.610;2023-09-18T00:17:07;5.10;;;3.45;;
3401;SDS011;1714;49.756;8.610;2023-09-18T00:27:43;6.05;;;3.63;;
3401;SDS011;1714;49.756;8.610;2023-09-18T00:38:18;8.23;;;3.72;;
3401;SDS011;1714;49.756;8.610;2023-09-18T00:48:56;3.70;;;3.30;;
3401;SDS011;1714;49.756;8.610;2023-09-18T00:59:31;8.32;;;3.47;;
3401;SDS011;1714;49.756;8.610;2023-09-18T01:10:08;6.07;;;3.70;;
3401;SDS011;1714;49.756;8.610;2023-09-18T01:20:44;10.63;;;3.65;;
3401;SDS011;1714;49.756;8.610;2023-09-18T01:31:19;8.25;;;3.85;;
3401;SDS011;1714;49.756;8.610;2023-09-18T01:41:55;10.70;;;4.75;;
3401;SDS011;1714;49.756;8.610;2023-09-18T01:52:30;6.45;;;3.67;;
3401;SDS011;1714;49.756;8.610;2023-09-18T02:03:05;9.57;;;4.30;;
3401;SDS011;1714;49.756;8.610;2023-09-18T02:13:59;16.20;;;4.78;;
3401;SDS011;1714;49.756;8.610;2023-09-18T02:24:35;9.00;;;3.63;;
3401;SDS011;1714;49.756;8.610;2023-09-18T02:35:09;7.05;;;3.58;;
3401;SDS011;1714;49.756;8.610;2023-09-18T02:45:45;4.95;;;3.13;;
3401;SDS011;1714;49.756;8.610;2023-09-18T02:56:20;12.35;;;3.75;;
3401;SDS011;1714;49.756;8.610;2023-09-18T03:06:55;6.68;;;3.25;;
3401;SDS011;1714;49.756;8.610;2023-09-18T03:17:30;6.03;;;3.42;;
3401;SDS011;1714;49.756;8.610;2023-09-18T03:28:05;13.85;;;3.85;;
3401;SDS011;1714;49.756;8.610;2023-09-18T03:38:40;8.20;;;2.97;;
3401;SDS011;1714;49.756;8.610;2023-09-18T03:49:15;8.18;;;3.00;;
3401;SDS011;1714;49.756;8.610;2023-09-18T03:59:51;8.20;;;2.40;;
3401;SDS011;1714;49.756;8.610;2023-09-18T04:10:26;6.15;;;2.53;;
3401;SDS011;1714;49.756;8.610;2023-09-18T04:21:01;4.78;;;2.72;;
3401;SDS011;1714;49.756;8.610;2023-09-18T04:31:36;7.70;;;2.97;;
3401;SDS011;1714;49.756;8.610;2023-09-18T04:42:14;5.68;;;2.60;;
3401;SDS011;1714;49.756;8.610;2023-09-18T04:52:49;7.05;;;2.78;;
3401;SDS011;1714;49.756;8.610;2023-09-18T05:03:26;14.13;;;3.80;;
3401;SDS011;1714;49.756;8.610;2023-09-18T05:14:04;8.13;;;3.30;;
3401;SDS011;1714;49.756;8.610;2023-09-18T05:24:40;10.85;;;2.88;;
3401;SDS011;1714;49.756;8.610;2023-09-18T05:35:15;7.13;;;3.00;;
3401;SDS011;1714;49.756;8.610;2023-09-18T05:45:51;9.57;;;3.28;;
3401;SDS011;1714;49.756;8.610;2023-09-18T05:56:25;12.57;;;3.08;;
3401;SDS011;1714;49.756;8.610;2023-09-18T06:07:00;11.55;;;2.80;;
3401;SDS011;1714;49.756;8.610;2023-09-18T06:17:36;9.13;;;2.92;;
3401;SDS011;1714;49.756;8.610;2023-09-18T06:28:15;10.50;;;3.47;;
3401;SDS011;1714;49.756;8.610;2023-09-18T06:38:50;10.98;;;2.92;;
3401;SDS011;1714;49.756;8.610;2023-09-18T06:49:25;9.60;;;2.40;;
3401;SDS011;1714;49.756;8.610;2023-09-18T07:00:01;11.07;;;2.83;;
3401;SDS011;1714;49.756;8.610;2023-09-18T07:10:38;11.23;;;2.70;;
3401;SDS011;1714;49.756;8.610;2023-09-18T07:21:14;8.70;;;2.05;;
3401;SDS011;1714;49.756;8.610;2023-09-18T07:31:48;7.13;;;2.15;;
3401;SDS011;1714;49.756;8.610;2023-09-18T07:42:24;9.10;;;2.22;;
3401;SDS011;1714;49.756;8.610;2023-09-18T07:53:02;13.30;;;2.00;;
3401;SDS011;1714;49.756;8.610;2023-09-18T08:03:37;12.18;;;2.22;;
3401;SDS011;1714;49.756;8.610;2023-09-18T08:14:12;10.95;;;2.80;;
3401;SDS011;1714;49.756;8.610;2023-09-18T08:24:47;9.65;;;2.22;;
3401;SDS011;1714;49.756;8.610;2023-09-18T08:35:22;8.52;;;1.45;;
3401;SDS011;1714;49.756;8.610;2023-09-18T08:56:37;4.47;;;1.98;;
3401;SDS011;1714;49.756;8.610;2023-09-18T09:07:11;2.30;;;0.90;;
3401;SDS011;1714;49.756;8.610;2023-09-18T09:17:48;8.05;;;1.45;;
3401;SDS011;1714;49.756;8.610;2023-09-18T09:28:30;6.65;;;2.45;;
3401;SDS011;1714;49.756;8.610;2023-09-18T09:39:05;5.15;;;1.35;;
3401;SDS011;1714;49.756;8.610;2023-09-18T09:49:47;5.85;;;1.77;;
3401;SDS011;1714;49.756;8.610;2023-09-18T10:00:23;4.20;;;1.40;;
3401;SDS011;1714;49.756;8.610;2023-09-18T10:11:07;3.78;;;1.38;;
3401;SDS011;1714;49.756;8.610;2023-09-18T10:21:48;6.80;;;1.63;;
3401;SDS011;1714;49.756;8.610;2023-09-18T10:32:34;4.25;;;1.15;;
3401;SDS011;1714;49.756;8.610;2023-09-18T10:43:09;8.88;;;1.60;;
3401;SDS011;1714;49.756;8.610;2023-09-18T10:53:47;4.20;;;1.67;;
3401;SDS011;1714;49.756;8.610;2023-09-18T11:04:23;5.45;;;1.98;;
3401;SDS011;1714;49.756;8.610;2023-09-18T11:14:58;5.75;;;1.55;;
3401;SDS011;1714;49.756;8.610;2023-09-18T11:25:34;6.68;;;1.30;;
3401;SDS011;1714;49.756;8.610;2023-09-18T11:36:13;3.33;;;1.55;;
3401;SDS011;1714;49.756;8.610;2023-09-18T11:47:05;4.80;;;1.27;;
3401;SDS011;1714;49.756;8.610;2023-09-18T11:57:55;4.05;;;1.45;;
3401;SDS011;1714;49.756;8.610;2023-09-18T12:08:35;4.90;;;1.60;;
3401;SDS011;1714;49.756;8.610;2023-09-18T12:19:15;3.85;;;1.48;;
3401;SDS011;1714;49.756;8.610;2023-09-18T12:29:52;6.10;;;1.17;;
3401;SDS011;1714;49.756;8.610;2023-09-18T12:40:30;5.50;;;1.58;;
3401;SDS011;1714;49.756;8.610;2023-09-18T12:51:09;4.25;;;1.30;;
3401;SDS011;1714;49.756;8.610;2023-09-18T13:01:47;5.03;;;1.40;;
3401;SDS011;1714;49.756;8.610;2023-09-18T13:12:22;6.28;;;1.77;;
3401;SDS011;1714;49.756;8.610;2023-09-18T13:22:59;4.30;;;0.98;;
3401;SDS011;1714;49.756;8.610;2023-09-18T13:33:43;7.00;;;1.80;;
3401;SDS011;1714;49.756;8.610;2023-09-18T13:44:19;5.88;;;1.67;;
3401;SDS011;1714;49.756;8.610;2023-09-18T13:54:55;2.88;;;1.20;;
3401;SDS011;1714;49.756;8.610;2023-09-18T14:05:30;2.78;;;1.13;;
3401;SDS011;1714;49.756;8.610;2023-09-18T14:16:07;4.18;;;1.25;;
3401;SDS011;1714;49.756;8.610;2023-09-18T14:26:44;3.67;;;1.30;;
3401;SDS011;1714;49.756;8.610;2023-09-18T14:37:19;4.38;;;1.00;;
3401;SDS011;1714;49.756;8.610;2023-09-18T14:47:53;3.65;;;1.08;;
3401;SDS011;1714;49.756;8.610;2023-09-18T14:58:28;6.15;;;1.48;;
3401;SDS011;1714;49.756;8.610;2023-09-18T15:09:04;2.33;;;1.20;;
3401;SDS011;1714;49.756;8.610;2023-09-18T15:19:39;3.22;;;1.08;;
3401;SDS011;1714;49.756;8.610;2023-09-18T15:30:14;3.05;;;1.15;;
3401;SDS011;1714;49.756;8.610;2023-09-18T15:40:49;2.35;;;1.20;;
3401;SDS011;1714;49.756;8.610;2023-09-18T15:51:24;3.55;;;1.10;;
3401;SDS011;1714;49.756;8.610;2023-09-18T16:01:58;4.32;;;1.25;;
3401;SDS011;1714;49.756;8.610;2023-09-18T16:12:34;2.90;;;1.33;;
3401;SDS011;1714;49.756;8.610;2023-09-18T16:23:09;3.85;;;1.33;;
3401;SDS011;1714;49.756;8.610;2023-09-18T16:33:44;4.70;;;1.13;;
3401;SDS011;1714;49.756;8.610;2023-09-18T16:44:19;2.70;;;1.48;;
3401;SDS011;1714;49.756;8.610;2023-09-18T16:54:55;2.00;;;1.23;;
3401;SDS011;1714;49.756;8.610;2023-09-18T17:05:32;2.17;;;1.23;;
3401;SDS011;1714;49.756;8.610;2023-09-18T17:16:08;8.25;;;1.40;;
3401;SDS011;1714;49.756;8.610;2023-09-18T17:26:44;2.08;;;0.80;;
3401;SDS011;1714;49.756;8.610;2023-09-18T17:37:19;3.33;;;1.85;;
3401;SDS011;1714;49.756;8.610;2023-09-18T17:47:54;3.00;;;1.08;;
3401;SDS011;1714;49.756;8.610;2023-09-18T17:58:29;2.80;;;1.10;;
3401;SDS011;1714;49.756;8.610;2023-09-18T18:09:04;4.53;;;1.25;;
3401;SDS011;1714;49.756;8.610;2023-09-18T18:19:39;5.35;;;1.45;;
3401;SDS011;1714;49.756;8.610;2023-09-18T18:30:13;0.93;;;0.80;;
3401;SDS011;1714;49.756;8.610;2023-09-18T18:40:54;2.70;;;1.17;;
3401;SDS011;1714;49.756;8.610;2023-09-18T18:51:38;1.38;;;0.98;;
3401;SDS011;1714;49.756;8.610;2023-09-18T19:02:13;2.17;;;0.85;;
3401;SDS011;1714;49.756;8.610;2023-09-18T19:12:48;3.17;;;0.50;;
3401;SDS011;1714;49.756;8.610;2023-09-18T19:23:23;3.85;;;0.70;;
3401;SDS011;1714;49.756;8.610;2023-09-18T19:33:58;1.42;;;0.60;;
3401;SDS011;1714;49.756;8.610;2023-09-18T19:44:38;1.58;;;0.60;;
3401;SDS011;1714;49.756;8.610;2023-09-18T19:55:15;0.93;;;0.50;;
3401;SDS011;1714;49.756;8.610;2023-09-18T20:06:01;1.88;;;0.70;;
3401;SDS011;1714;49.756;8.610;2023-09-18T20:16:38;1.13;;;0.70;;
3401;SDS011;1714;49.756;8.610;2023-09-18T20:27:23;1.13;;;0.50;;
3401;SDS011;1714;49.756;8.610;2023-09-18T20:38:06;4.32;;;0.90;;
3401;SDS011;1714;49.756;8.610;2023-09-18T20:48:44;3.80;;;0.93;;
3401;SDS011;1714;49.756;8.610;2023-09-18T20:59:19;2.30;;;1.00;;
3401;SDS011;1714;49.756;8.610;2023-09-18T21:09:54;2.70;;;0.88;;
3401;SDS011;1714;49.756;8.610;2023-09-18T21:20:30;4.93;;;1.52;;
3401;SDS011;1714;49.756;8.610;2023-09-18T21:31:12;1.40;;;0.80;;
3401;SDS011;1714;49.756;8.610;2023-09-18T21:41:55;3.97;;;1.27;;
3401;SDS011;1714;49.756;8.610;2023-09-18T21:52:30;1.67;;;0.88;;
3401;SDS011;1714;49.756;8.610;2023-09-18T22:03:08;3.17;;;0.95;;
3401;SDS011;1714;49.756;8.610;2023-09-18T22:13:43;2.23;;;0.90;;
3401;SDS011;1714;49.756;8.610;2023-09-18T22:24:18;3.72;;;1.02;;
3401;SDS011;1714;49.756;8.610;2023-09-18T22:34:53;3.05;;;1.20;;
3401;SDS011;1714;49.756;8.610;2023-09-18T22:56:42;3.13;;;0.80;;
3401;SDS011;1714;49.756;8.610;2023-09-18T23:07:17;5.22;;;1.10;;
3401;SDS011;1714;49.756;8.610;2023-09-18T23:17:52;4.47;;;1.05;;
3401;SDS011;1714;49.756;8.610;2023-09-18T23:28:30;2.55;;;0.80;;
3401;SDS011;1714;49.756;8.610;2023-09-18T23:39:06;3.47;;;0.90;;
3401;SDS011;1714;49.756;8.610;2023-09-18T23:49:44;3.45;;;0.80;;
